Time;durP1;ratioP1;P1;durP2;ratioP2;P2;SDS_P1;SDS_P2;PMS_P1;PMS_P2;Temp;Humidity;BMP_temperature;BMP_pressure;BME280_temperature;BME280_humidity;BME280_pressure;Samples;Min_cycle;Max_cycle;Signal;HPM_P1;HPM_P2
2022/03/29 00:01:39;;;;;;;3.50;3.23;;;;;;;;;;4949491;29;20215;-58
2022/03/29 00:04:06;;;;;;;5.87;3.57;;;;;;;;;;4950948;29;20203;-58
2022/03/29 00:06:33;;;;;;;3.03;2.83;;;;;;;;;;4950540;28;20234;-58
2022/03/29 00:09:01;;;;;;;5.60;3.57;;;;;;;;;;4959193;28;20214;-58
2022/03/29 00:11:28;;;;;;;4.63;3.27;;;;;;;;;;4958936;28;20207;-57
2022/03/29 00:13:55;;;;;;;4.07;3.03;;;;;;;;;;4960132;28;20750;-57
2022/03/29 00:16:22;;;;;;;4.73;3.57;;;;;;;;;;4953846;28;20250;-58
2022/03/29 00:18:50;;;;;;;7.17;3.90;;;;;;;;;;4955447;28;20211;-58
2022/03/29 00:21:17;;;;;;;8.33;3.70;;;;;;;;;;4950307;28;20215;-58
2022/03/29 00:23:45;;;;;;;5.73;4.10;;;;;;;;;;4950011;29;20203;-58
2022/03/29 00:26:12;;;;;;;6.60;3.73;;;;;;;;;;4947410;29;20234;-58
2022/03/29 00:28:42;;;;;;;5.50;3.33;;;;;;;;;;4949173;29;20290;-58
2022/03/29 00:31:09;;;;;;;8.47;3.80;;;;;;;;;;4946395;29;20234;-58
2022/03/29 00:33:37;;;;;;;5.00;3.60;;;;;;;;;;4949322;29;20215;-57
2022/03/29 00:36:05;;;;;;;4.47;3.40;;;;;;;;;;4945472;29;20636;-58
2022/03/29 00:38:32;;;;;;;6.80;3.63;;;;;;;;;;4950268;29;20226;-58
2022/03/29 00:41:00;;;;;;;6.80;3.40;;;;;;;;;;4948812;29;20214;-59
2022/03/29 00:43:27;;;;;;;3.20;2.90;;;;;;;;;;4947411;29;20279;-58
2022/03/29 00:45:55;;;;;;;7.00;4.13;;;;;;;;;;4950261;28;20224;-58
2022/03/29 00:48:23;;;;;;;3.63;3.33;;;;;;;;;;4940502;29;20326;-58
2022/03/29 00:50:51;;;;;;;3.70;3.33;;;;;;;;;;4950466;29;20203;-58
2022/03/29 00:53:20;;;;;;;4.10;3.70;;;;;;;;;;4951025;29;20215;-58
2022/03/29 00:55:48;;;;;;;5.77;3.40;;;;;;;;;;4932958;29;20214;-58
2022/03/29 00:58:16;;;;;;;3.13;2.83;;;;;;;;;;4932622;29;20230;-58
2022/03/29 01:00:43;;;;;;;6.03;3.00;;;;;;;;;;4945628;28;20277;-58
2022/03/29 01:03:11;;;;;;;3.20;3.00;;;;;;;;;;4961382;28;20615;-58
2022/03/29 01:05:38;;;;;;;4.70;3.07;;;;;;;;;;4934768;28;20338;-58
2022/03/29 01:08:06;;;;;;;5.60;3.23;;;;;;;;;;4937896;29;20589;-58
2022/03/29 01:10:34;;;;;;;9.10;3.60;;;;;;;;;;4943256;29;20219;-58
2022/03/29 01:13:01;;;;;;;5.17;3.37;;;;;;;;;;4947652;29;20215;-58
2022/03/29 01:15:29;;;;;;;8.10;5.20;;;;;;;;;;4945282;29;20207;-57
2022/03/29 01:17:55;;;;;;;7.23;3.83;;;;;;;;;;4944875;29;20219;-58
2022/03/29 01:20:24;;;;;;;8.93;4.10;;;;;;;;;;4947316;29;20248;-58
2022/03/29 01:22:53;;;;;;;7.43;3.60;;;;;;;;;;4937294;29;20532;-58
2022/03/29 01:25:20;;;;;;;5.13;3.77;;;;;;;;;;4941416;29;20242;-58
2022/03/29 01:27:48;;;;;;;5.43;3.47;;;;;;;;;;4935948;29;20249;-58
2022/03/29 01:30:16;;;;;;;8.67;3.10;;;;;;;;;;4941786;29;20891;-58
2022/03/29 01:32:45;;;;;;;4.87;3.73;;;;;;;;;;4929248;29;20211;-58
2022/03/29 01:35:12;;;;;;;8.07;4.10;;;;;;;;;;4942624;29;20212;-58
2022/03/29 01:37:40;;;;;;;6.97;3.90;;;;;;;;;;4928086;29;20207;-58
2022/03/29 01:40:09;;;;;;;5.47;3.47;;;;;;;;;;4928986;29;20207;-58
2022/03/29 01:42:37;;;;;;;3.57;3.13;;;;;;;;;;4942195;29;20250;-58
2022/03/29 01:45:04;;;;;;;3.90;3.53;;;;;;;;;;4943466;29;20615;-58
2022/03/29 01:47:31;;;;;;;4.40;3.17;;;;;;;;;;4933157;29;20235;-58
2022/03/29 01:49:58;;;;;;;4.13;3.33;;;;;;;;;;4927348;29;20294;-58
2022/03/29 01:52:25;;;;;;;15.93;4.60;;;;;;;;;;4941423;29;20246;-58
2022/03/29 01:54:52;;;;;;;5.33;3.73;;;;;;;;;;4925613;29;20212;-58
2022/03/29 01:57:26;;;;;;;6.27;4.70;;;;;;;;;;4937682;29;20734;-58
2022/03/29 02:02:38;;;;;;;8.77;4.63;;;;;;;;;;4944537;29;20301;-58
2022/03/29 02:05:05;;;;;;;4.50;3.70;;;;;;;;;;4928456;29;20210;-58
2022/03/29 02:07:32;;;;;;;11.80;4.07;;;;;;;;;;4941309;29;20214;-58
2022/03/29 02:09:59;;;;;;;6.23;4.50;;;;;;;;;;4944857;29;20215;-58
2022/03/29 02:12:28;;;;;;;4.23;3.43;;;;;;;;;;4931897;29;20216;-58
2022/03/29 02:14:55;;;;;;;5.47;3.40;;;;;;;;;;4933050;29;20250;-58
2022/03/29 02:17:22;;;;;;;6.07;4.27;;;;;;;;;;4945582;29;20222;-60
2022/03/29 02:19:49;;;;;;;7.80;3.77;;;;;;;;;;4936759;29;20678;-57
2022/03/29 02:22:16;;;;;;;5.00;3.70;;;;;;;;;;4945109;29;20219;-58
2022/03/29 02:24:43;;;;;;;5.43;3.57;;;;;;;;;;4941447;29;20777;-57
2022/03/29 02:27:10;;;;;;;8.10;4.37;;;;;;;;;;4927767;29;20254;-58
2022/03/29 02:29:39;;;;;;;5.90;4.47;;;;;;;;;;4931103;29;20224;-58
2022/03/29 02:32:06;;;;;;;5.63;3.97;;;;;;;;;;4926762;29;20239;-58
2022/03/29 02:34:33;;;;;;;8.00;4.20;;;;;;;;;;4929874;29;20681;-58
2022/03/29 02:37:00;;;;;;;9.10;4.53;;;;;;;;;;4944084;29;20203;-58
2022/03/29 02:39:27;;;;;;;8.30;4.40;;;;;;;;;;4944528;29;20223;-58
2022/03/29 02:41:55;;;;;;;13.20;4.50;;;;;;;;;;4929269;29;20220;-58
2022/03/29 02:44:22;;;;;;;7.50;4.47;;;;;;;;;;4947328;29;20297;-58
2022/03/29 02:46:50;;;;;;;9.77;4.47;;;;;;;;;;4949632;29;20604;-58
2022/03/29 02:49:17;;;;;;;6.60;4.23;;;;;;;;;;4931745;29;20626;-59
2022/03/29 02:51:44;;;;;;;8.90;4.50;;;;;;;;;;4926584;29;20266;-58
2022/03/29 02:54:11;;;;;;;7.80;4.17;;;;;;;;;;4943854;29;20211;-58
2022/03/29 02:56:38;;;;;;;11.27;4.67;;;;;;;;;;4949674;29;20292;-58
2022/03/29 02:59:06;;;;;;;6.87;4.80;;;;;;;;;;4940784;28;20215;-58
2022/03/29 03:01:33;;;;;;;7.47;4.63;;;;;;;;;;4947221;29;20211;-58
2022/03/29 03:04:02;;;;;;;9.37;4.57;;;;;;;;;;4952610;29;20567;-58
2022/03/29 03:06:29;;;;;;;5.93;4.87;;;;;;;;;;4942349;29;20236;-58
2022/03/29 03:08:56;;;;;;;6.90;4.30;;;;;;;;;;4941650;29;20671;-58
2022/03/29 03:11:23;;;;;;;7.70;4.30;;;;;;;;;;4934188;29;20212;-58
2022/03/29 03:13:50;;;;;;;6.00;4.00;;;;;;;;;;4950684;29;20249;-58
2022/03/29 03:16:17;;;;;;;9.90;4.00;;;;;;;;;;4953550;29;20218;-58
2022/03/29 03:18:44;;;;;;;9.50;5.27;;;;;;;;;;4952708;29;20214;-58
2022/03/29 03:21:13;;;;;;;9.87;4.67;;;;;;;;;;4951470;29;20681;-58
2022/03/29 03:23:40;;;;;;;7.17;4.67;;;;;;;;;;4941346;29;20266;-58
2022/03/29 03:26:07;;;;;;;9.20;4.27;;;;;;;;;;4953061;29;20235;-58
2022/03/29 03:28:34;;;;;;;5.17;4.40;;;;;;;;;;4936130;29;20585;-58
2022/03/29 03:31:01;;;;;;;4.23;3.83;;;;;;;;;;4935697;29;20211;-58
2022/03/29 03:33:28;;;;;;;6.93;4.53;;;;;;;;;;4933199;29;20208;-58
2022/03/29 03:35:55;;;;;;;6.07;4.33;;;;;;;;;;4942154;29;20674;-58
2022/03/29 03:38:24;;;;;;;6.80;4.23;;;;;;;;;;4949501;29;20258;-58
2022/03/29 03:40:51;;;;;;;5.73;4.43;;;;;;;;;;4943087;29;20314;-58
2022/03/29 03:43:18;;;;;;;7.90;4.73;;;;;;;;;;4933374;29;20996;-58
2022/03/29 03:45:45;;;;;;;7.27;5.07;;;;;;;;;;4937960;29;20718;-58
2022/03/29 03:48:12;;;;;;;6.13;4.83;;;;;;;;;;4936840;29;20212;-58
2022/03/29 03:50:39;;;;;;;6.23;4.77;;;;;;;;;;4932647;29;20208;-58
2022/03/29 03:53:06;;;;;;;6.37;4.43;;;;;;;;;;4935317;29;20215;-58
2022/03/29 03:55:35;;;;;;;8.00;4.57;;;;;;;;;;4952057;29;20270;-58
2022/03/29 03:58:02;;;;;;;6.63;4.77;;;;;;;;;;4941206;29;20274;-58
2022/03/29 04:00:29;;;;;;;6.20;4.83;;;;;;;;;;4941151;29;20254;-58
2022/03/29 04:02:57;;;;;;;11.17;4.67;;;;;;;;;;4949672;29;20286;-58
2022/03/29 04:05:26;;;;;;;6.23;4.87;;;;;;;;;;4950229;29;20303;-58
2022/03/29 04:07:53;;;;;;;6.67;4.60;;;;;;;;;;4942401;29;20316;-58
2022/03/29 04:10:20;;;;;;;6.33;4.57;;;;;;;;;;4941203;29;20315;-58
2022/03/29 04:12:49;;;;;;;7.17;4.30;;;;;;;;;;4947868;29;20575;-60
2022/03/29 04:15:16;;;;;;;7.20;4.57;;;;;;;;;;4947906;29;20738;-58
2022/03/29 04:17:43;;;;;;;8.07;4.67;;;;;;;;;;4947756;29;20673;-58
2022/03/29 04:20:10;;;;;;;6.93;4.63;;;;;;;;;;4945466;29;20262;-58
2022/03/29 04:22:38;;;;;;;5.57;4.53;;;;;;;;;;4950265;29;20219;-58
2022/03/29 04:25:05;;;;;;;7.17;4.70;;;;;;;;;;4948680;29;20668;-58
2022/03/29 04:27:32;;;;;;;8.33;4.40;;;;;;;;;;4950075;29;20234;-58
2022/03/29 04:30:01;;;;;;;5.10;4.50;;;;;;;;;;4946072;29;20258;-58
2022/03/29 04:32:28;;;;;;;5.77;4.47;;;;;;;;;;4947715;29;20203;-58
2022/03/29 04:34:55;;;;;;;10.70;4.70;;;;;;;;;;4948717;29;20281;-59
2022/03/29 04:37:24;;;;;;;4.57;4.17;;;;;;;;;;4948434;29;20207;-59
2022/03/29 04:39:51;;;;;;;7.10;5.30;;;;;;;;;;4946094;29;20242;-58
2022/03/29 04:42:19;;;;;;;5.77;4.50;;;;;;;;;;4947830;29;20215;-59
2022/03/29 04:44:49;;;;;;;5.37;4.30;;;;;;;;;;4948939;29;20294;-58
2022/03/29 04:47:18;;;;;;;7.47;4.53;;;;;;;;;;4949269;29;20237;-58
2022/03/29 04:49:45;;;;;;;6.93;4.77;;;;;;;;;;4949873;29;20199;-58
2022/03/29 04:52:12;;;;;;;6.57;4.37;;;;;;;;;;4947315;29;20239;-59
2022/03/29 04:54:48;;;;;;;6.43;4.37;;;;;;;;;;4950476;29;20230;-58
2022/03/29 04:57:15;;;;;;;8.17;4.53;;;;;;;;;;4948458;29;20195;-58
2022/03/29 04:59:42;;;;;;;8.47;4.30;;;;;;;;;;4948270;29;20221;-58
2022/03/29 05:02:09;;;;;;;7.87;5.10;;;;;;;;;;4948481;29;20210;-57
2022/03/29 05:04:45;;;;;;;7.67;4.40;;;;;;;;;;4946822;28;20518;-61
2022/03/29 05:07:12;;;;;;;9.63;5.07;;;;;;;;;;4943470;29;20325;-59
2022/03/29 05:09:39;;;;;;;9.17;5.43;;;;;;;;;;4943518;29;20237;-59
2022/03/29 05:12:06;;;;;;;9.10;4.50;;;;;;;;;;4932869;29;20243;-59
2022/03/29 05:14:40;;;;;;;5.60;4.60;;;;;;;;;;4931731;29;20218;-58
2022/03/29 05:17:07;;;;;;;8.70;4.90;;;;;;;;;;4937316;29;20198;-59
2022/03/29 05:19:34;;;;;;;4.63;4.10;;;;;;;;;;4948581;29;20277;-60
2022/03/29 05:22:03;;;;;;;5.63;4.73;;;;;;;;;;4942263;29;20266;-59
2022/03/29 05:24:30;;;;;;;5.80;3.93;;;;;;;;;;4945835;29;20204;-59
2022/03/29 05:26:57;;;;;;;6.00;4.47;;;;;;;;;;4947034;29;20588;-58
2022/03/29 05:29:25;;;;;;;8.27;5.17;;;;;;;;;;4940907;29;20255;-59
2022/03/29 05:31:52;;;;;;;6.97;4.87;;;;;;;;;;4932255;29;20278;-59
2022/03/29 05:34:19;;;;;;;11.90;5.57;;;;;;;;;;4944099;29;20635;-59
2022/03/29 05:36:46;;;;;;;6.20;4.97;;;;;;;;;;4949134;29;20666;-58
2022/03/29 05:39:15;;;;;;;10.43;5.97;;;;;;;;;;4938983;29;20198;-58
2022/03/29 05:41:42;;;;;;;7.27;4.83;;;;;;;;;;4939364;29;20214;-59
2022/03/29 05:44:09;;;;;;;5.83;4.87;;;;;;;;;;4944271;29;20203;-58
2022/03/29 05:49:21;;;;;;;8.60;5.23;;;;;;;;;;4937962;29;20218;-58
2022/03/29 05:51:50;;;;;;;8.40;4.67;;;;;;;;;;4942603;29;20301;-58
2022/03/29 05:54:18;;;;;;;12.13;5.63;;;;;;;;;;4950415;29;20310;-58
2022/03/29 05:56:46;;;;;;;11.57;5.37;;;;;;;;;;4944071;29;20195;-58
2022/03/29 05:59:13;;;;;;;9.30;5.73;;;;;;;;;;4951283;28;20202;-59
2022/03/29 06:01:40;;;;;;;8.40;5.80;;;;;;;;;;4940689;28;20215;-59
2022/03/29 06:04:07;;;;;;;8.70;5.50;;;;;;;;;;4931291;29;20346;-58
2022/03/29 06:06:36;;;;;;;10.00;5.47;;;;;;;;;;4937619;29;20235;-58
2022/03/29 06:09:04;;;;;;;12.77;6.57;;;;;;;;;;4950261;29;20207;-59
2022/03/29 06:11:32;;;;;;;9.97;6.33;;;;;;;;;;4950294;29;20212;-57
2022/03/29 06:14:00;;;;;;;9.63;6.93;;;;;;;;;;4950942;29;20325;-58
2022/03/29 06:16:27;;;;;;;17.40;6.83;;;;;;;;;;4945897;28;20679;-59
2022/03/29 06:18:54;;;;;;;12.63;7.10;;;;;;;;;;4935323;29;20212;-58
2022/03/29 06:21:24;;;;;;;14.07;6.57;;;;;;;;;;4943969;29;20273;-58
2022/03/29 06:23:51;;;;;;;18.07;6.93;;;;;;;;;;4935136;29;20711;-58
2022/03/29 06:26:18;;;;;;;11.50;6.83;;;;;;;;;;4936094;29;20317;-58
2022/03/29 06:28:47;;;;;;;14.87;7.60;;;;;;;;;;4942935;29;20241;-58
2022/03/29 06:31:14;;;;;;;14.73;7.30;;;;;;;;;;4954194;29;20258;-59
2022/03/29 06:33:41;;;;;;;11.23;5.73;;;;;;;;;;4954107;29;20673;-63
2022/03/29 06:36:08;;;;;;;9.73;5.60;;;;;;;;;;4948193;29;20215;-60
2022/03/29 06:38:35;;;;;;;13.53;6.67;;;;;;;;;;4940599;29;20729;-58
2022/03/29 06:41:03;;;;;;;9.83;5.97;;;;;;;;;;4953895;29;20266;-58
2022/03/29 06:43:30;;;;;;;11.37;6.57;;;;;;;;;;4952312;29;20266;-58
2022/03/29 06:45:59;;;;;;;13.57;6.47;;;;;;;;;;4953363;29;20221;-58
2022/03/29 06:48:26;;;;;;;12.77;6.47;;;;;;;;;;4953342;29;20270;-58
2022/03/29 06:50:53;;;;;;;14.30;6.93;;;;;;;;;;4953612;29;20293;-58
2022/03/29 06:53:20;;;;;;;10.50;6.87;;;;;;;;;;4953626;29;20226;-58
2022/03/29 06:55:47;;;;;;;12.17;6.73;;;;;;;;;;4948768;29;20233;-58
2022/03/29 06:58:14;;;;;;;15.47;6.67;;;;;;;;;;4934755;29;20259;-58
2022/03/29 07:00:41;;;;;;;11.50;6.10;;;;;;;;;;4944211;29;20218;-58
2022/03/29 07:03:10;;;;;;;9.43;6.23;;;;;;;;;;4946734;29;20263;-58
2022/03/29 07:05:39;;;;;;;18.43;5.63;;;;;;;;;;4945547;29;20298;-58
2022/03/29 07:08:10;;;;;;;10.20;5.70;;;;;;;;;;4947915;29;20232;-58
2022/03/29 07:13:22;;;;;;;12.80;6.17;;;;;;;;;;4972883;28;20209;-58
2022/03/29 07:15:50;;;;;;;16.70;7.60;;;;;;;;;;4952936;28;20219;-58
2022/03/29 07:18:18;;;;;;;14.43;7.47;;;;;;;;;;4953578;29;20681;-58
2022/03/29 07:20:45;;;;;;;11.03;6.53;;;;;;;;;;4953422;29;20637;-57
2022/03/29 07:23:12;;;;;;;13.23;7.07;;;;;;;;;;4944182;29;20259;-58
2022/03/29 07:25:39;;;;;;;15.07;8.00;;;;;;;;;;4950039;29;20733;-58
2022/03/29 07:28:11;;;;;;;13.27;6.47;;;;;;;;;;4952619;29;20341;-58
2022/03/29 07:30:41;;;;;;;16.33;7.37;;;;;;;;;;4952691;29;20226;-57
2022/03/29 07:33:09;;;;;;;15.03;7.77;;;;;;;;;;4953180;29;20211;-57
2022/03/29 07:35:37;;;;;;;16.87;7.40;;;;;;;;;;4935816;29;20214;-57
2022/03/29 07:38:08;;;;;;;15.53;7.90;;;;;;;;;;4933633;29;20279;-57
2022/03/29 07:40:35;;;;;;;11.03;7.43;;;;;;;;;;4933825;29;20211;-58
2022/03/29 07:43:03;;;;;;;15.33;8.10;;;;;;;;;;4948652;29;20803;-67
2022/03/29 07:45:30;;;;;;;14.67;7.40;;;;;;;;;;4943807;29;20242;-58
2022/03/29 07:47:57;;;;;;;17.27;8.20;;;;;;;;;;4933705;29;20236;-58
2022/03/29 07:50:24;;;;;;;15.30;7.23;;;;;;;;;;4933718;29;20306;-57
2022/03/29 07:52:54;;;;;;;15.30;7.83;;;;;;;;;;4945087;29;20287;-57
2022/03/29 07:55:21;;;;;;;14.60;7.73;;;;;;;;;;4948400;29;20627;-58
2022/03/29 07:57:48;;;;;;;12.10;7.20;;;;;;;;;;4949475;29;20262;-58
2022/03/29 08:00:35;;;;;;;15.40;7.70;;;;;;;;;;4952479;29;20262;-58
2022/03/29 08:03:02;;;;;;;14.63;7.23;;;;;;;;;;4941390;29;20212;-58
2022/03/29 08:05:30;;;;;;;15.87;8.30;;;;;;;;;;4933306;29;20235;-58
2022/03/29 08:07:58;;;;;;;13.30;7.37;;;;;;;;;;4949557;29;20293;-58
2022/03/29 08:10:27;;;;;;;13.47;7.30;;;;;;;;;;4952174;29;20215;-57
2022/03/29 08:12:54;;;;;;;9.33;6.23;;;;;;;;;;4942748;29;20234;-57
2022/03/29 08:15:21;;;;;;;14.23;7.00;;;;;;;;;;4930871;29;20251;-58
2022/03/29 08:17:49;;;;;;;13.47;7.27;;;;;;;;;;4947027;29;20204;-59
2022/03/29 08:20:17;;;;;;;12.47;7.27;;;;;;;;;;4944561;29;20590;-58
2022/03/29 08:22:46;;;;;;;13.73;7.90;;;;;;;;;;4932847;29;20259;-58
2022/03/29 08:25:18;;;;;;;14.50;7.07;;;;;;;;;;4936106;29;20233;-59
2022/03/29 08:27:46;;;;;;;11.77;6.87;;;;;;;;;;4948716;29;20239;-58
2022/03/29 08:30:15;;;;;;;15.20;6.53;;;;;;;;;;4943649;29;20207;-58
2022/03/29 08:32:42;;;;;;;11.97;7.37;;;;;;;;;;4932292;29;20226;-58
2022/03/29 08:35:12;;;;;;;12.57;6.80;;;;;;;;;;4932242;29;20501;-58
2022/03/29 08:37:40;;;;;;;15.27;7.27;;;;;;;;;;4931788;29;20574;-58
2022/03/29 08:40:09;;;;;;;10.90;6.90;;;;;;;;;;4932421;29;20238;-57
2022/03/29 08:42:37;;;;;;;13.87;6.77;;;;;;;;;;4938291;29;20209;-58
2022/03/29 08:45:07;;;;;;;13.30;7.73;;;;;;;;;;4951206;29;20262;-59
2022/03/29 08:47:35;;;;;;;11.10;6.60;;;;;;;;;;4951140;29;20235;-60
2022/03/29 08:50:03;;;;;;;11.13;7.33;;;;;;;;;;4950272;29;20219;-59
2022/03/29 08:52:30;;;;;;;11.60;6.97;;;;;;;;;;4950981;29;20219;-58
2022/03/29 08:54:57;;;;;;;12.87;6.83;;;;;;;;;;4950888;29;20592;-59
2022/03/29 08:57:24;;;;;;;13.43;6.93;;;;;;;;;;4945802;29;20702;-58
2022/03/29 08:59:52;;;;;;;9.87;5.97;;;;;;;;;;4944875;29;20219;-58
2022/03/29 09:02:20;;;;;;;10.37;6.70;;;;;;;;;;4950768;29;20675;-58
2022/03/29 09:05:06;;;;;;;10.07;6.70;;;;;;;;;;4932529;29;20619;-57
2022/03/29 09:07:46;;;;;;;8.87;5.73;;;;;;;;;;4932419;29;20660;-59
2022/03/29 09:10:14;;;;;;;7.13;5.00;;;;;;;;;;4941625;29;20202;-58
2022/03/29 09:12:41;;;;;;;9.33;5.03;;;;;;;;;;4950974;29;20221;-58
2022/03/29 09:15:10;;;;;;;8.07;3.40;;;;;;;;;;4940684;29;20270;-58
2022/03/29 09:17:39;;;;;;;8.30;5.27;;;;;;;;;;4942891;29;20239;-58
2022/03/29 09:20:08;;;;;;;4.77;3.80;;;;;;;;;;4948624;28;20686;-57
2022/03/29 09:22:41;;;;;;;6.40;3.80;;;;;;;;;;4949538;29;20583;-57
2022/03/29 09:25:09;;;;;;;4.97;4.17;;;;;;;;;;4950681;29;20223;-57
2022/03/29 09:27:49;;;;;;;9.60;5.63;;;;;;;;;;4945937;29;20231;-57
2022/03/29 09:30:17;;;;;;;6.25;4.22;;;;;;;;;;4939297;29;20268;-57
2022/03/29 09:32:58;;;;;;;7.87;4.67;;;;;;;;;;4931268;29;20212;-57
2022/03/29 09:35:26;;;;;;;7.90;5.17;;;;;;;;;;4930484;29;20211;-56
2022/03/29 09:37:53;;;;;;;7.93;4.80;;;;;;;;;;4930028;29;20758;-56
2022/03/29 09:40:20;;;;;;;8.43;4.30;;;;;;;;;;4931340;29;20313;-60
2022/03/29 09:43:00;;;;;;;8.30;5.70;;;;;;;;;;4950505;29;20674;-60
2022/03/29 09:45:42;;;;;;;7.90;4.97;;;;;;;;;;4950412;29;20685;-57
2022/03/29 09:48:23;;;;;;;10.18;6.22;;;;;;;;;;4944757;29;20218;-57
2022/03/29 09:50:55;;;;;;;8.87;4.70;;;;;;;;;;4953220;28;20552;-57
2022/03/29 09:53:35;;;;;;;14.33;7.27;;;;;;;;;;4952010;29;20214;-58
2022/03/29 09:56:02;;;;;;;9.87;5.97;;;;;;;;;;4941107;29;20219;-57
2022/03/29 09:58:30;;;;;;;8.05;4.60;;;;;;;;;;4933914;29;20324;-58
2022/03/29 10:00:57;;;;;;;6.93;4.47;;;;;;;;;;4950008;29;20210;-57
2022/03/29 10:03:26;;;;;;;6.93;4.53;;;;;;;;;;4944326;29;20215;-57
2022/03/29 10:06:01;;;;;;;8.93;3.70;;;;;;;;;;4952104;29;20734;-58
2022/03/29 10:11:14;;;;;;;5.63;3.80;;;;;;;;;;4951723;29;20257;-57
2022/03/29 10:13:41;;;;;;;4.27;3.67;;;;;;;;;;4952288;29;20211;-58
2022/03/29 10:16:12;;;;;;;4.03;3.33;;;;;;;;;;4953490;29;20265;-58
2022/03/29 10:18:41;;;;;;;7.95;4.20;;;;;;;;;;4945832;29;20207;-58
2022/03/29 10:21:09;;;;;;;4.80;4.10;;;;;;;;;;4934975;29;20271;-58
2022/03/29 10:23:37;;;;;;;5.03;3.97;;;;;;;;;;4948251;29;20270;-58
2022/03/29 10:26:05;;;;;;;6.25;4.13;;;;;;;;;;4951579;29;20230;-57
2022/03/29 10:28:32;;;;;;;7.88;5.00;;;;;;;;;;4944271;29;20247;-58
2022/03/29 10:30:59;;;;;;;8.07;4.60;;;;;;;;;;4945966;29;20918;-56
2022/03/29 10:33:27;;;;;;;7.57;5.63;;;;;;;;;;4944485;28;20222;-69
2022/03/29 10:36:07;;;;;;;8.73;4.97;;;;;;;;;;4973648;28;20632;-56
2022/03/29 10:38:53;;;;;;;6.68;4.63;;;;;;;;;;4956747;28;20220;-58
2022/03/29 10:41:39;;;;;;;7.65;4.90;;;;;;;;;;4937158;29;20208;-58
2022/03/29 10:44:08;;;;;;;5.13;4.10;;;;;;;;;;4935239;29;20208;-58
2022/03/29 10:46:39;;;;;;;7.78;4.72;;;;;;;;;;4939183;29;20413;-58
2022/03/29 10:49:20;;;;;;;9.27;5.25;;;;;;;;;;4947114;29;21055;-58
2022/03/29 10:51:49;;;;;;;5.53;5.03;;;;;;;;;;4945695;29;20681;-57
2022/03/29 10:54:30;;;;;;;10.85;5.55;;;;;;;;;;4936635;29;20215;-57
2022/03/29 10:56:58;;;;;;;10.07;6.28;;;;;;;;;;4934807;29;20219;-58
2022/03/29 10:59:25;;;;;;;12.40;6.05;;;;;;;;;;4945953;29;20283;-58
2022/03/29 11:02:08;;;;;;;9.75;5.05;;;;;;;;;;4948319;28;20625;-58
2022/03/29 11:04:35;;;;;;;9.65;5.82;;;;;;;;;;4953609;29;20214;-58
2022/03/29 11:07:14;;;;;;;11.43;6.60;;;;;;;;;;4953507;29;20211;-57
2022/03/29 11:09:44;;;;;;;10.10;5.80;;;;;;;;;;4946762;29;20224;-59
2022/03/29 11:12:26;;;;;;;9.98;6.22;;;;;;;;;;4946796;29;20206;-57
2022/03/29 11:14:53;;;;;;;7.65;5.85;;;;;;;;;;4943321;29;20204;-58
2022/03/29 11:17:42;;;;;;;13.30;7.22;;;;;;;;;;4944115;29;20936;-57
2022/03/29 11:20:29;;;;;;;11.15;6.53;;;;;;;;;;4950293;29;20231;-59
2022/03/29 11:22:57;;;;;;;11.40;5.70;;;;;;;;;;4936753;29;20215;-57
2022/03/29 11:25:25;;;;;;;7.13;5.45;;;;;;;;;;4934892;29;20706;-58
2022/03/29 11:27:52;;;;;;;9.23;5.70;;;;;;;;;;4950536;29;20248;-58
2022/03/29 11:30:19;;;;;;;10.45;5.20;;;;;;;;;;4940345;29;20230;-57
2022/03/29 11:32:47;;;;;;;10.27;6.25;;;;;;;;;;4951038;29;20273;-57
2022/03/29 11:35:16;;;;;;;8.00;5.75;;;;;;;;;;4933683;29;20902;-57
2022/03/29 11:37:44;;;;;;;8.35;5.90;;;;;;;;;;4942599;29;20211;-57
2022/03/29 11:40:13;;;;;;;13.35;6.55;;;;;;;;;;4951240;29;20588;-57
2022/03/29 11:42:44;;;;;;;9.13;5.53;;;;;;;;;;4940387;29;20207;-57
2022/03/29 11:45:11;;;;;;;7.25;5.13;;;;;;;;;;4952657;29;20222;-57
2022/03/29 11:47:38;;;;;;;10.23;5.55;;;;;;;;;;4940311;29;20271;-57
2022/03/29 11:50:06;;;;;;;8.40;5.20;;;;;;;;;;4951986;29;20375;-58
2022/03/29 11:52:34;;;;;;;12.10;5.95;;;;;;;;;;4951862;29;20218;-57
2022/03/29 11:55:01;;;;;;;8.75;5.78;;;;;;;;;;4952100;29;20265;-57
2022/03/29 11:57:31;;;;;;;7.57;4.70;;;;;;;;;;4941049;29;20203;-57
2022/03/29 11:59:58;;;;;;;4.82;4.20;;;;;;;;;;4948294;29;20235;-56
2022/03/29 12:02:26;;;;;;;11.57;5.75;;;;;;;;;;4952210;29;20206;-57
2022/03/29 12:04:54;;;;;;;7.90;4.78;;;;;;;;;;4949198;29;20246;-57
2022/03/29 12:07:35;;;;;;;9.70;5.68;;;;;;;;;;4945943;29;20204;-56
2022/03/29 12:10:02;;;;;;;6.50;4.63;;;;;;;;;;4936634;29;20231;-56
2022/03/29 12:12:30;;;;;;;7.57;4.90;;;;;;;;;;4946463;29;20208;-56
2022/03/29 12:15:02;;;;;;;8.82;4.90;;;;;;;;;;4932459;29;20212;-57
2022/03/29 12:17:29;;;;;;;5.97;5.00;;;;;;;;;;4935658;29;20210;-57
2022/03/29 12:19:57;;;;;;;6.25;4.88;;;;;;;;;;4949613;29;20796;-59
2022/03/29 12:22:26;;;;;;;9.80;4.72;;;;;;;;;;4951312;29;20207;-58
2022/03/29 12:24:55;;;;;;;7.38;4.93;;;;;;;;;;4940059;28;20236;-57
2022/03/29 12:27:22;;;;;;;6.63;4.53;;;;;;;;;;4970104;28;20328;-57
2022/03/29 12:29:51;;;;;;;6.85;4.60;;;;;;;;;;4938756;28;20226;-59
2022/03/29 12:32:19;;;;;;;7.93;4.88;;;;;;;;;;4945205;29;20208;-56
2022/03/29 12:34:46;;;;;;;10.18;4.90;;;;;;;;;;4943599;29;20214;-56
2022/03/29 12:37:14;;;;;;;8.02;5.18;;;;;;;;;;4935116;29;20208;-57
2022/03/29 12:39:42;;;;;;;7.32;4.85;;;;;;;;;;4936283;29;20215;-57
2022/03/29 12:42:10;;;;;;;9.80;6.05;;;;;;;;;;4948156;28;20226;-57
2022/03/29 12:44:42;;;;;;;7.65;5.30;;;;;;;;;;4936879;29;20670;-57
2022/03/29 12:47:11;;;;;;;10.23;5.68;;;;;;;;;;4937768;29;20258;-57
2022/03/29 12:49:39;;;;;;;10.27;6.45;;;;;;;;;;4946479;28;20226;-57
2022/03/29 12:52:07;;;;;;;10.32;6.10;;;;;;;;;;4945162;28;20317;-57
2022/03/29 12:54:35;;;;;;;10.45;5.70;;;;;;;;;;4944941;29;20273;-57
2022/03/29 12:57:03;;;;;;;11.02;5.95;;;;;;;;;;4946094;29;20214;-57
2022/03/29 12:59:36;;;;;;;9.90;6.32;;;;;;;;;;4947140;29;20211;-59
2022/03/29 13:02:15;;;;;;;11.90;6.07;;;;;;;;;;4945365;29;20211;-59
2022/03/29 13:04:43;;;;;;;9.43;5.40;;;;;;;;;;4944208;28;20202;-57
2022/03/29 13:07:11;;;;;;;8.82;5.93;;;;;;;;;;4942502;29;20211;-56
2022/03/29 13:09:38;;;;;;;10.07;5.72;;;;;;;;;;4942325;29;20231;-56
2022/03/29 13:12:11;;;;;;;12.18;6.20;;;;;;;;;;4945708;29;21539;-57
2022/03/29 13:14:38;;;;;;;11.52;5.93;;;;;;;;;;4943536;29;20219;-59
2022/03/29 13:17:06;;;;;;;10.38;5.65;;;;;;;;;;4943843;29;20208;-57
2022/03/29 13:19:34;;;;;;;8.68;6.32;;;;;;;;;;4927922;29;20266;-56
2022/03/29 13:22:01;;;;;;;9.98;5.50;;;;;;;;;;4928193;29;20590;-59
2022/03/29 13:24:35;;;;;;;11.32;5.82;;;;;;;;;;4938331;28;20215;-57
2022/03/29 13:27:03;;;;;;;8.10;5.57;;;;;;;;;;4930982;29;20258;-57
2022/03/29 13:29:31;;;;;;;10.90;5.60;;;;;;;;;;4929406;29;20326;-57
2022/03/29 13:31:59;;;;;;;10.32;5.47;;;;;;;;;;4941095;29;20212;-57
2022/03/29 13:34:26;;;;;;;9.45;5.95;;;;;;;;;;4936522;29;20649;-57
2022/03/29 13:36:54;;;;;;;8.45;4.72;;;;;;;;;;4946579;29;20293;-56
2022/03/29 13:39:22;;;;;;;11.57;5.72;;;;;;;;;;4942669;29;20226;-57
2022/03/29 13:41:49;;;;;;;10.95;5.55;;;;;;;;;;4944773;29;20706;-57
2022/03/29 13:44:16;;;;;;;10.50;5.13;;;;;;;;;;4944179;29;20258;-59
2022/03/29 13:46:43;;;;;;;9.10;5.57;;;;;;;;;;4935898;29;20211;-56
2022/03/29 13:49:11;;;;;;;12.18;5.97;;;;;;;;;;4927642;29;20235;-56
2022/03/29 13:51:38;;;;;;;10.90;4.97;;;;;;;;;;4937363;29;20693;-57
2022/03/29 13:54:06;;;;;;;11.52;6.13;;;;;;;;;;4935217;29;20231;-57
2022/03/29 13:56:33;;;;;;;14.00;5.45;;;;;;;;;;4936189;28;20465;-59
2022/03/29 13:59:00;;;;;;;9.57;5.32;;;;;;;;;;4932061;29;20221;-57
2022/03/29 14:01:28;;;;;;;9.00;5.55;;;;;;;;;;4945171;29;20261;-57
2022/03/29 14:03:55;;;;;;;14.23;6.22;;;;;;;;;;4946190;29;20301;-59
2022/03/29 14:06:22;;;;;;;10.75;6.05;;;;;;;;;;4936598;29;20240;-57
2022/03/29 14:08:49;;;;;;;8.00;5.47;;;;;;;;;;4935112;29;20270;-56
2022/03/29 14:11:18;;;;;;;8.52;5.63;;;;;;;;;;4940485;29;20207;-57
2022/03/29 14:13:45;;;;;;;10.70;6.20;;;;;;;;;;4928924;29;20950;-57
2022/03/29 14:16:12;;;;;;;8.15;5.53;;;;;;;;;;4932224;29;20215;-57
2022/03/29 14:18:41;;;;;;;13.48;6.07;;;;;;;;;;4943008;29;20979;-57
2022/03/29 14:21:08;;;;;;;9.38;5.75;;;;;;;;;;4941662;28;20567;-57
2022/03/29 14:23:35;;;;;;;8.27;5.43;;;;;;;;;;4936843;29;20216;-57
2022/03/29 14:26:02;;;;;;;14.40;6.38;;;;;;;;;;4942221;29;20273;-57
2022/03/29 14:28:30;;;;;;;11.63;6.15;;;;;;;;;;4934032;28;20270;-58
2022/03/29 14:31:00;;;;;;;12.93;5.63;;;;;;;;;;4949839;28;20297;-57
2022/03/29 14:33:29;;;;;;;12.82;6.35;;;;;;;;;;4935401;29;20295;-57
2022/03/29 14:35:56;;;;;;;10.55;5.60;;;;;;;;;;4940438;28;20626;-57
2022/03/29 14:38:23;;;;;;;8.95;5.32;;;;;;;;;;4930759;29;20220;-57
2022/03/29 14:40:50;;;;;;;12.82;5.65;;;;;;;;;;4930564;29;20639;-57
2022/03/29 14:43:17;;;;;;;11.10;6.32;;;;;;;;;;4929481;29;20275;-57
2022/03/29 14:45:47;;;;;;;13.70;6.18;;;;;;;;;;4938138;29;20211;-57
2022/03/29 14:48:15;;;;;;;10.00;5.65;;;;;;;;;;4939752;29;20214;-56
2022/03/29 14:50:43;;;;;;;14.65;5.45;;;;;;;;;;4947210;28;20223;-56
2022/03/29 14:53:10;;;;;;;11.80;5.55;;;;;;;;;;4950906;28;20280;-57
2022/03/29 14:55:37;;;;;;;7.90;5.18;;;;;;;;;;4935591;28;20215;-58
2022/03/29 14:58:05;;;;;;;21.10;7.57;;;;;;;;;;4939845;29;20842;-58